Terminal Aerodrome Forecast
Issued by NWS Quad Cities IA IL

Home | Current Version | Previous Version | Text Only | Print | Product List | Glossary On
Versions: 1 2 3 4 5 6 7 8 9 10 11 12 13 14 15 16 17 18 19 20 21 22 23 24
782
FTUS43 KDVN 191435 AAB
TAFMLI
TAF AMD
KMLI 191435Z 1915/2012 13006KT 2SM -RA BR BKN004 OVC015
      TEMPO 1915/1919 1SM -DZ BR OVC003
     FM191900 15007KT 2SM -DZ BR OVC006
     FM200000 04005KT 3SM -RA BR OVC006=

USA.gov is the U.S. government's official web portal to all federal, state and local government web resources and services.